Time;durP1;ratioP1;P1;durP2;ratioP2;P2;SDS_P1;SDS_P2;PMS_P1;PMS_P2;Temp;Humidity;BMP_temperature;BMP_pressure;BME280_temperature;BME280_humidity;BME280_pressure;Samples;Min_cycle;Max_cycle;Signal;HPM_P1;HPM_P2
2023/05/24 00:01:06;;;;;;;;;;;24.30;53.50;;;;;;5087001;27;42926;-76
2023/05/24 00:03:33;;;;;;;;;;;24.20;53.60;;;;;;5085256;28;42740;-96
2023/05/24 00:06:02;;;;;;;;;;;24.20;53.50;;;;;;5087003;28;42791;-80
2023/05/24 00:08:28;;;;;;;;;;;24.20;53.10;;;;;;5085964;27;42856;-80
2023/05/24 00:10:53;;;;;;;;;;;24.20;53.50;;;;;;5086707;28;42852;-96
2023/05/24 00:13:19;;;;;;;;;;;24.20;53.50;;;;;;5085680;28;43638;-92
2023/05/24 00:15:44;;;;;;;;;;;24.40;53.50;;;;;;5085617;27;42766;-75
2023/05/24 00:18:10;;;;;;;;;;;24.20;53.50;;;;;;5066737;28;42837;-92
2023/05/24 00:20:35;;;;;;;;;;;24.20;53.60;;;;;;5085583;27;43493;-93
2023/05/24 00:23:01;;;;;;;;;;;24.20;53.70;;;;;;5085910;27;43974;-93
2023/05/24 00:25:26;;;;;;;;;;;24.20;53.70;;;;;;5085425;28;42847;-76
2023/05/24 00:27:52;;;;;;;;;;;24.10;53.60;;;;;;5086027;28;43728;-84
2023/05/24 00:30:18;;;;;;;;;;;24.10;53.60;;;;;;5085896;28;42728;-95
2023/05/24 00:32:43;;;;;;;;;;;24.20;53.80;;;;;;5085335;28;43611;-87
2023/05/24 00:35:09;;;;;;;;;;;24.20;53.70;;;;;;5085528;28;42916;-95
2023/05/24 00:37:36;;;;;;;;;;;24.20;53.70;;;;;;5085677;28;43544;-91
2023/05/24 00:40:03;;;;;;;;;;;24.10;53.80;;;;;;5085864;27;42841;-78
2023/05/24 00:42:28;;;;;;;;;;;24.10;53.70;;;;;;5102186;27;42915;-75
2023/05/24 00:44:54;;;;;;;;;;;24.20;54.30;;;;;;5105932;27;42909;-87
2023/05/24 00:47:19;;;;;;;;;;;24.10;53.90;;;;;;5106002;27;43649;-85
2023/05/24 00:49:45;;;;;;;;;;;24.10;53.30;;;;;;5106254;27;42768;-91
2023/05/24 00:52:11;;;;;;;;;;;24.20;54.00;;;;;;5105562;27;43415;-77
2023/05/24 00:54:39;;;;;;;;;;;24.10;53.90;;;;;;5105775;27;43055;-92
2023/05/24 00:57:05;;;;;;;;;;;24.10;54.20;;;;;;5105737;27;43520;-77
2023/05/24 00:59:31;;;;;;;;;;;24.10;53.80;;;;;;5105932;27;42832;-87
2023/05/24 01:01:56;;;;;;;;;;;24.10;53.90;;;;;;5106295;27;42892;-95
2023/05/24 01:04:22;;;;;;;;;;;24.10;54.00;;;;;;5087024;27;42947;-91
2023/05/24 01:07:08;;;;;;;;;;;24.10;54.20;;;;;;5105381;27;42921;-76
2023/05/24 01:09:52;;;;;;;;;;;24.10;53.50;;;;;;5092032;27;43265;-91
2023/05/24 01:12:23;;;;;;;;;;;24.00;53.50;;;;;;5094475;27;43044;-77
2023/05/24 01:14:57;;;;;;;;;;;24.00;53.60;;;;;;5093777;27;43064;-85
2023/05/24 01:17:26;;;;;;;;;;;23.90;54.00;;;;;;5093959;27;43290;-78
2023/05/24 01:20:01;;;;;;;;;;;23.90;53.90;;;;;;5093899;27;42973;-88
2023/05/24 01:22:45;;;;;;;;;;;23.90;53.50;;;;;;5090540;27;42920;-88
2023/05/24 01:25:29;;;;;;;;;;;24.00;53.50;;;;;;5092589;27;43163;-76
2023/05/24 01:27:55;;;;;;;;;;;23.90;53.60;;;;;;5091870;27;43186;-80
2023/05/24 01:30:21;;;;;;;;;;;23.90;53.70;;;;;;5094824;27;42927;-90
2023/05/24 01:32:46;;;;;;;;;;;24.00;54.30;;;;;;5095221;27;43441;-86
2023/05/24 01:35:12;;;;;;;;;;;24.00;53.70;;;;;;5098333;27;43264;-81
2023/05/24 01:37:37;;;;;;;;;;;23.90;53.10;;;;;;5097230;27;43053;-90
2023/05/24 01:40:03;;;;;;;;;;;24.00;53.90;;;;;;5099086;27;42957;-81
2023/05/24 01:42:34;;;;;;;;;;;24.00;53.70;;;;;;5100539;27;42851;-89
2023/05/24 01:45:18;;;;;;;;;;;24.00;54.40;;;;;;5088330;27;43330;-87
2023/05/24 01:47:50;;;;;;;;;;;24.00;53.40;;;;;;5087887;28;42927;-76
2023/05/24 01:50:15;;;;;;;;;;;23.90;53.30;;;;;;5088355;28;42934;-88
2023/05/24 01:52:42;;;;;;;;;;;23.90;53.60;;;;;;5087775;28;43055;-81
2023/05/24 01:55:08;;;;;;;;;;;24.00;53.60;;;;;;5088231;28;43004;-86
2023/05/24 01:57:34;;;;;;;;;;;23.90;53.60;;;;;;5087749;28;42864;-76
2023/05/24 02:00:01;;;;;;;;;;;23.80;53.70;;;;;;5087879;27;44065;-76
2023/05/24 02:02:26;;;;;;;;;;;23.90;53.80;;;;;;5088086;28;42938;-76
2023/05/24 02:04:52;;;;;;;;;;;23.80;53.80;;;;;;5087384;28;42867;-89
2023/05/24 02:07:18;;;;;;;;;;;23.90;54.10;;;;;;5088608;27;42903;-75
2023/05/24 02:09:43;;;;;;;;;;;23.80;53.30;;;;;;5087854;28;42884;-89
2023/05/24 02:12:09;;;;;;;;;;;23.90;53.90;;;;;;5087136;28;43654;-79
2023/05/24 02:14:36;;;;;;;;;;;23.80;53.70;;;;;;5088224;28;42855;-82
2023/05/24 02:17:02;;;;;;;;;;;23.90;54.20;;;;;;5087703;27;43610;-88
2023/05/24 02:19:28;;;;;;;;;;;23.90;54.10;;;;;;5088113;28;42925;-87
2023/05/24 02:21:53;;;;;;;;;;;23.80;54.60;;;;;;5087086;28;43545;-78
2023/05/24 02:24:19;;;;;;;;;;;23.80;53.80;;;;;;5087936;28;42889;-88
2023/05/24 02:26:44;;;;;;;;;;;23.80;53.90;;;;;;5068782;28;43165;-86
2023/05/24 02:29:10;;;;;;;;;;;23.80;53.90;;;;;;5087374;28;42919;-87
2023/05/24 02:31:35;;;;;;;;;;;24.30;54.20;;;;;;5087462;28;43416;-87
2023/05/24 02:34:01;;;;;;;;;;;23.80;54.20;;;;;;5087377;27;42772;-80
2023/05/24 02:36:27;;;;;;;;;;;23.70;53.60;;;;;;5087356;28;42967;-88
2023/05/24 02:38:52;;;;;;;;;;;23.80;54.20;;;;;;5104033;27;43092;-88
2023/05/24 02:41:18;;;;;;;;;;;23.70;54.50;;;;;;5107899;27;42853;-75
2023/05/24 02:43:44;;;;;;;;;;;23.70;54.70;;;;;;5088721;27;43462;-92
2023/05/24 02:46:09;;;;;;;;;;;23.70;54.90;;;;;;5106247;27;42926;-92
2023/05/24 02:48:35;;;;;;;;;;;23.70;54.90;;;;;;5107789;27;42859;-92
2023/05/24 02:51:02;;;;;;;;;;;23.70;55.00;;;;;;5107240;27;44271;-90
2023/05/24 02:53:28;;;;;;;;;;;23.60;55.40;;;;;;5107995;27;42931;-91
2023/05/24 02:55:53;;;;;;;;;;;23.60;55.80;;;;;;5105592;27;43094;-91
2023/05/24 02:58:19;;;;;;;;;;;23.60;56.20;;;;;;5087843;27;43006;-92
2023/05/24 03:00:44;;;;;;;;;;;24.00;56.40;;;;;;5101691;27;43072;-89
2023/05/24 03:03:10;;;;;;;;;;;23.70;55.30;;;;;;5088688;27;43022;-90
2023/05/24 03:05:35;;;;;;;;;;;23.80;55.00;;;;;;5094713;27;42968;-89
2023/05/24 03:08:01;;;;;;;;;;;23.70;55.60;;;;;;5086073;27;43053;-91
2023/05/24 03:10:26;;;;;;;;;;;23.70;56.30;;;;;;5090227;27;43480;-89
2023/05/24 03:12:52;;;;;;;;;;;24.00;56.30;;;;;;5107475;27;42917;-90
2023/05/24 03:15:17;;;;;;;;;;;23.80;55.60;;;;;;5106546;27;42926;-89
2023/05/24 03:17:43;;;;;;;;;;;23.80;55.00;;;;;;5089871;27;42843;-85
2023/05/24 03:20:10;;;;;;;;;;;23.60;55.80;;;;;;5089518;27;42983;-88
2023/05/24 03:22:35;;;;;;;;;;;23.70;55.90;;;;;;5099199;27;43010;-87
2023/05/24 03:25:01;;;;;;;;;;;23.70;56.00;;;;;;5086007;27;42855;-90
2023/05/24 03:27:26;;;;;;;;;;;23.60;56.10;;;;;;5086003;28;42985;-86
2023/05/24 03:29:52;;;;;;;;;;;23.60;55.70;;;;;;5086260;27;44134;-88
2023/05/24 03:32:17;;;;;;;;;;;23.60;55.60;;;;;;5087566;27;42941;-81
2023/05/24 03:34:43;;;;;;;;;;;23.60;55.50;;;;;;5067527;28;42956;-90
2023/05/24 03:37:09;;;;;;;;;;;23.60;55.70;;;;;;5092433;27;43023;-89
2023/05/24 03:39:34;;;;;;;;;;;23.60;55.80;;;;;;5100953;27;43326;-86
2023/05/24 03:42:00;;;;;;;;;;;23.70;55.20;;;;;;5093755;27;43595;-91
2023/05/24 03:44:25;;;;;;;;;;;23.60;54.60;;;;;;5099430;27;43773;-91
2023/05/24 03:46:51;;;;;;;;;;;23.30;54.50;;;;;;5104092;27;42873;-90
2023/05/24 03:49:16;;;;;;;;;;;23.70;54.90;;;;;;5098481;27;43203;-90
2023/05/24 03:51:42;;;;;;;;;;;23.70;54.50;;;;;;5085126;27;43969;-90
2023/05/24 03:54:08;;;;;;;;;;;23.50;54.70;;;;;;5098065;27;43012;-89
2023/05/24 03:56:33;;;;;;;;;;;23.70;55.30;;;;;;5102913;27;42954;-89
2023/05/24 03:58:59;;;;;;;;;;;23.60;55.50;;;;;;5106141;27;43438;-78
2023/05/24 04:01:25;;;;;;;;;;;23.60;55.70;;;;;;5097391;27;42992;-91
2023/05/24 04:03:51;;;;;;;;;;;23.50;55.90;;;;;;5095243;27;43083;-95
2023/05/24 04:06:17;;;;;;;;;;;23.40;56.50;;;;;;5103090;27;42407;-95
2023/05/24 04:08:42;;;;;;;;;;;23.60;56.20;;;;;;5108561;27;42778;-93
2023/05/24 04:11:08;;;;;;;;;;;23.70;55.90;;;;;;5088299;27;43127;-92
2023/05/24 04:13:34;;;;;;;;;;;23.50;54.60;;;;;;5089409;27;43002;-94
2023/05/24 04:15:59;;;;;;;;;;;23.60;55.30;;;;;;5085651;28;42969;-93
2023/05/24 04:18:25;;;;;;;;;;;23.70;55.40;;;;;;5085533;28;43280;-94
2023/05/24 04:20:51;;;;;;;;;;;23.30;56.20;;;;;;5093273;27;42936;-81
2023/05/24 04:23:16;;;;;;;;;;;23.60;56.30;;;;;;5096956;27;43436;-93
2023/05/24 04:25:42;;;;;;;;;;;23.60;56.00;;;;;;5088723;27;42870;-92
2023/05/24 04:28:08;;;;;;;;;;;23.50;56.60;;;;;;5098069;27;42898;-93
2023/05/24 04:30:35;;;;;;;;;;;23.40;56.50;;;;;;5103765;27;42923;-89
2023/05/24 04:33:02;;;;;;;;;;;23.50;56.90;;;;;;5107103;27;43432;-93
2023/05/24 04:35:28;;;;;;;;;;;23.80;57.30;;;;;;5089813;27;43011;-93
2023/05/24 04:37:54;;;;;;;;;;;23.60;57.30;;;;;;5086657;27;42869;-95
2023/05/24 04:40:19;;;;;;;;;;;23.50;57.20;;;;;;5084880;27;43036;-82
2023/05/24 04:42:45;;;;;;;;;;;23.50;57.00;;;;;;5096012;27;43495;-93
2023/05/24 04:45:11;;;;;;;;;;;23.60;56.30;;;;;;5103890;27;43201;-93
2023/05/24 04:47:36;;;;;;;;;;;23.60;56.70;;;;;;5087560;27;43464;-92
2023/05/24 04:50:05;;;;;;;;;;;23.70;57.30;;;;;;5085545;27;43343;-93
2023/05/24 04:52:32;;;;;;;;;;;23.40;55.10;;;;;;5095641;27;43836;-93
2023/05/24 04:54:57;;;;;;;;;;;23.50;57.20;;;;;;5084520;28;43003;-91
2023/05/24 04:57:23;;;;;;;;;;;23.20;57.90;;;;;;5084153;28;43010;-94
2023/05/24 04:59:48;;;;;;;;;;;23.40;57.50;;;;;;5088231;27;43012;-90
2023/05/24 05:02:14;;;;;;;;;;;23.40;58.00;;;;;;5091833;27;43700;-93
2023/05/24 05:04:39;;;;;;;;;;;23.30;57.90;;;;;;5105131;27;42837;-86
2023/05/24 05:07:05;;;;;;;;;;;23.50;57.70;;;;;;5097066;27;43866;-94
2023/05/24 05:09:31;;;;;;;;;;;23.30;57.70;;;;;;5094203;27;42779;-93
2023/05/24 05:11:57;;;;;;;;;;;23.60;58.20;;;;;;5101908;27;42857;-94
2023/05/24 05:14:22;;;;;;;;;;;23.60;58.50;;;;;;5100208;27;42945;-93
2023/05/24 05:16:48;;;;;;;;;;;23.60;58.80;;;;;;5094068;27;42931;-89
2023/05/24 05:19:13;;;;;;;;;;;23.60;58.30;;;;;;5102250;27;43556;-91
2023/05/24 05:21:39;;;;;;;;;;;23.40;58.10;;;;;;5086139;27;43468;-93
2023/05/24 05:24:05;;;;;;;;;;;23.50;57.80;;;;;;5104203;27;43045;-91
2023/05/24 05:26:30;;;;;;;;;;;23.50;58.10;;;;;;5097925;27;43748;-86
2023/05/24 05:28:56;;;;;;;;;;;23.50;57.60;;;;;;5097453;27;42950;-92
2023/05/24 05:31:22;;;;;;;;;;;23.40;57.50;;;;;;5098165;27;42973;-92
2023/05/24 05:33:48;;;;;;;;;;;23.60;57.30;;;;;;5098305;27;42958;-92
2023/05/24 05:36:14;;;;;;;;;;;23.40;57.50;;;;;;5096393;27;43451;-94
2023/05/24 05:38:39;;;;;;;;;;;23.40;57.70;;;;;;5099276;27;43104;-91
2023/05/24 05:41:06;;;;;;;;;;;23.70;57.20;;;;;;5100570;27;43037;-91
2023/05/24 05:43:31;;;;;;;;;;;23.50;57.10;;;;;;5101608;27;43347;-92
2023/05/24 05:45:57;;;;;;;;;;;23.60;56.80;;;;;;5079530;27;44600;-82
2023/05/24 05:48:22;;;;;;;;;;;23.50;56.60;;;;;;5096844;27;43048;-90
2023/05/24 05:50:48;;;;;;;;;;;23.40;56.00;;;;;;5097125;27;43609;-87
2023/05/24 05:53:14;;;;;;;;;;;23.60;55.60;;;;;;5098456;27;43002;-87
2023/05/24 05:55:40;;;;;;;;;;;23.50;55.70;;;;;;5093455;28;42990;-86
2023/05/24 05:58:05;;;;;;;;;;;23.60;55.20;;;;;;5074876;27;43082;-86
2023/05/24 06:00:31;;;;;;;;;;;23.60;54.80;;;;;;5100105;27;43672;-88
2023/05/24 06:02:56;;;;;;;;;;;23.50;55.40;;;;;;5099871;27;43332;-75
2023/05/24 06:05:22;;;;;;;;;;;23.60;54.80;;;;;;5098077;27;43283;-87
2023/05/24 06:07:47;;;;;;;;;;;23.50;53.10;;;;;;5075361;27;43673;-88
2023/05/24 06:10:13;;;;;;;;;;;23.60;53.90;;;;;;5095433;27;43687;-87
2023/05/24 06:12:39;;;;;;;;;;;23.60;54.00;;;;;;5095483;27;43118;-89
2023/05/24 06:15:05;;;;;;;;;;;23.60;53.80;;;;;;5101485;27;42948;-88
2023/05/24 06:17:31;;;;;;;;;;;23.60;53.50;;;;;;5099203;27;43000;-88
2023/05/24 06:19:56;;;;;;;;;;;23.60;54.10;;;;;;5097208;27;43602;-85
2023/05/24 06:22:23;;;;;;;;;;;23.20;53.30;;;;;;5100016;27;42956;-85
2023/05/24 06:24:48;;;;;;;;;;;23.60;53.30;;;;;;5101172;27;43059;-87
2023/05/24 06:27:14;;;;;;;;;;;23.60;53.40;;;;;;5100778;27;43053;-88
2023/05/24 06:29:39;;;;;;;;;;;23.60;53.00;;;;;;5102351;27;43541;-91
2023/05/24 06:32:05;;;;;;;;;;;23.60;53.20;;;;;;5102619;27;42949;-92
2023/05/24 06:34:30;;;;;;;;;;;23.70;53.20;;;;;;5090660;27;43005;-91
2023/05/24 06:36:56;;;;;;;;;;;23.60;53.30;;;;;;5093618;27;43141;-88
2023/05/24 06:39:24;;;;;;;;;;;23.70;53.40;;;;;;5096864;27;43019;-84
2023/05/24 06:41:50;;;;;;;;;;;23.60;53.30;;;;;;5095519;27;43032;-95
2023/05/24 06:44:16;;;;;;;;;;;23.70;53.40;;;;;;5090587;27;43572;-89
2023/05/24 06:46:41;;;;;;;;;;;23.60;53.40;;;;;;5100289;27;43064;-75
2023/05/24 06:49:07;;;;;;;;;;;23.80;53.50;;;;;;5107451;27;43876;-88
2023/05/24 06:51:33;;;;;;;;;;;23.70;53.50;;;;;;5107096;27;43029;-86
2023/05/24 06:53:58;;;;;;;;;;;23.70;53.70;;;;;;5096798;27;42933;-88
2023/05/24 06:56:25;;;;;;;;;;;23.70;53.80;;;;;;5096135;27;43050;-86
2023/05/24 06:58:51;;;;;;;;;;;23.70;54.00;;;;;;5095775;27;42888;-87
2023/05/24 07:01:17;;;;;;;;;;;23.70;54.10;;;;;;5094845;27;42989;-87
2023/05/24 07:03:43;;;;;;;;;;;23.70;54.10;;;;;;5096115;27;43312;-84
2023/05/24 07:06:12;;;;;;;;;;;23.70;54.30;;;;;;5100827;27;43087;-93
2023/05/24 07:08:38;;;;;;;;;;;23.70;54.30;;;;;;5072553;27;43759;-90
2023/05/24 07:11:05;;;;;;;;;;;23.70;54.30;;;;;;5102062;27;43057;-92
2023/05/24 07:13:30;;;;;;;;;;;23.70;54.40;;;;;;5087564;27;44628;-75
2023/05/24 07:15:56;;;;;;;;;;;23.70;54.40;;;;;;5086458;27;43086;-92
2023/05/24 07:18:21;;;;;;;;;;;23.70;54.50;;;;;;5092770;27;44126;-93
2023/05/24 07:20:47;;;;;;;;;;;23.80;54.70;;;;;;5089638;27;43152;-93
2023/05/24 07:23:12;;;;;;;;;;;23.80;54.60;;;;;;5093110;27;43047;-93
2023/05/24 07:25:38;;;;;;;;;;;23.70;54.50;;;;;;5100905;27;43064;-89
2023/05/24 07:28:04;;;;;;;;;;;23.80;54.40;;;;;;5089010;27;42823;-93
2023/05/24 07:30:30;;;;;;;;;;;23.80;54.60;;;;;;5086408;27;42990;-91
2023/05/24 07:32:55;;;;;;;;;;;23.80;54.50;;;;;;5086385;27;43742;-91
2023/05/24 07:35:21;;;;;;;;;;;23.80;54.50;;;;;;5093038;27;43507;-89
2023/05/24 07:37:47;;;;;;;;;;;23.70;54.30;;;;;;5106394;27;43466;-90
2023/05/24 07:40:13;;;;;;;;;;;23.80;54.50;;;;;;5098076;27;43138;-86
2023/05/24 07:42:38;;;;;;;;;;;23.80;54.40;;;;;;5086754;27;43570;-89
2023/05/24 07:45:05;;;;;;;;;;;23.80;54.30;;;;;;5084949;27;42831;-86
2023/05/24 07:47:31;;;;;;;;;;;23.80;54.10;;;;;;5085578;27;42962;-83
2023/05/24 07:49:56;;;;;;;;;;;23.80;54.20;;;;;;5086332;27;42985;-84
2023/05/24 07:52:23;;;;;;;;;;;23.80;54.70;;;;;;5098644;27;43635;-80
2023/05/24 07:54:49;;;;;;;;;;;23.80;54.30;;;;;;5086715;27;42977;-87
2023/05/24 07:57:14;;;;;;;;;;;23.80;54.20;;;;;;5087530;28;42944;-92
2023/05/24 07:59:40;;;;;;;;;;;23.90;53.60;;;;;;5088408;27;42957;-94
2023/05/24 08:02:06;;;;;;;;;;;23.90;54.50;;;;;;5086195;27;43597;-92
2023/05/24 08:04:32;;;;;;;;;;;23.90;53.90;;;;;;5085817;28;42830;-90
2023/05/24 08:07:00;;;;;;;;;;;24.00;54.10;;;;;;5086374;28;42992;-93
2023/05/24 08:09:26;;;;;;;;;;;23.90;53.70;;;;;;5087005;28;42787;-93
2023/05/24 08:11:52;;;;;;;;;;;24.00;53.70;;;;;;5085377;28;42865;-94
2023/05/24 08:14:17;;;;;;;;;;;23.90;53.70;;;;;;5086732;28;42843;-93
2023/05/24 08:16:43;;;;;;;;;;;24.00;53.70;;;;;;5068001;28;43576;-95
2023/05/24 08:19:08;;;;;;;;;;;24.00;53.70;;;;;;5086560;28;42792;-88
2023/05/24 08:21:34;;;;;;;;;;;24.00;53.60;;;;;;5086232;28;43770;-94
2023/05/24 08:23:59;;;;;;;;;;;24.00;53.60;;;;;;5086074;28;43057;-93
2023/05/24 08:26:25;;;;;;;;;;;24.00;53.40;;;;;;5086856;28;42930;-95
2023/05/24 08:28:51;;;;;;;;;;;24.00;53.40;;;;;;5087319;28;42954;-94
2023/05/24 08:31:17;;;;;;;;;;;24.00;53.50;;;;;;5086444;28;43007;-94
2023/05/24 08:33:42;;;;;;;;;;;24.00;53.30;;;;;;5085680;28;42824;-93
2023/05/24 08:36:08;;;;;;;;;;;24.10;53.30;;;;;;5086331;28;42880;-89
2023/05/24 08:38:34;;;;;;;;;;;24.10;53.30;;;;;;5086166;28;42978;-95
2023/05/24 08:41:00;;;;;;;;;;;24.10;53.40;;;;;;5087607;28;43530;-96
2023/05/24 08:43:25;;;;;;;;;;;24.10;53.30;;;;;;5091822;27;43088;-93
2023/05/24 08:45:52;;;;;;;;;;;24.10;53.30;;;;;;5101835;27;45131;-88
2023/05/24 08:48:18;;;;;;;;;;;24.10;53.10;;;;;;5096450;27;43161;-91
2023/05/24 08:50:43;;;;;;;;;;;24.10;53.10;;;;;;5077519;28;45788;-90
2023/05/24 08:53:10;;;;;;;;;;;24.10;53.20;;;;;;5092972;27;42960;-91
2023/05/24 08:55:36;;;;;;;;;;;24.10;53.00;;;;;;5090900;27;43149;-90
2023/05/24 08:58:02;;;;;;;;;;;24.10;53.10;;;;;;5090874;27;42982;-91
2023/05/24 09:00:28;;;;;;;;;;;24.10;53.00;;;;;;5093351;27;43598;-91
2023/05/24 09:02:56;;;;;;;;;;;24.10;52.90;;;;;;5090370;27;43045;-91
2023/05/24 09:05:21;;;;;;;;;;;24.20;53.00;;;;;;5089378;27;43068;-91
2023/05/24 09:07:48;;;;;;;;;;;24.10;53.00;;;;;;5084302;27;42999;-92
2023/05/24 09:10:14;;;;;;;;;;;24.10;53.00;;;;;;5088376;27;42980;-90
2023/05/24 09:12:43;;;;;;;;;;;24.10;53.00;;;;;;5083808;27;43031;-91
2023/05/24 09:15:09;;;;;;;;;;;24.10;52.90;;;;;;5097315;27;43614;-91
2023/05/24 09:17:35;;;;;;;;;;;24.10;53.00;;;;;;5100696;27;42886;-92
2023/05/24 09:20:03;;;;;;;;;;;24.20;52.90;;;;;;5096280;27;43095;-74
2023/05/24 09:22:30;;;;;;;;;;;24.10;52.90;;;;;;5104240;27;42831;-91
2023/05/24 09:25:01;;;;;;;;;;;24.10;53.00;;;;;;5093518;27;43623;-91
2023/05/24 09:27:27;;;;;;;;;;;24.10;52.80;;;;;;5096599;27;42980;-76
2023/05/24 09:29:54;;;;;;;;;;;24.20;53.00;;;;;;5092575;27;42914;-73
2023/05/24 09:32:23;;;;;;;;;;;24.10;53.00;;;;;;5092250;27;42959;-74
2023/05/24 09:34:50;;;;;;;;;;;24.10;53.10;;;;;;5088695;27;42959;-90
2023/05/24 09:37:17;;;;;;;;;;;24.20;53.10;;;;;;5090094;27;43015;-91
2023/05/24 09:39:43;;;;;;;;;;;24.20;53.20;;;;;;5092745;27;42891;-78
2023/05/24 09:42:16;;;;;;;;;;;24.20;53.30;;;;;;5092134;27;42958;-87
2023/05/24 09:44:43;;;;;;;;;;;24.20;53.10;;;;;;5091885;27;42910;-89
2023/05/24 09:47:08;;;;;;;;;;;24.20;53.10;;;;;;5095368;27;42989;-74
2023/05/24 09:49:37;;;;;;;;;;;24.20;53.10;;;;;;5101710;27;42969;-88
2023/05/24 09:52:02;;;;;;;;;;;24.20;53.10;;;;;;5091130;27;43017;-80
2023/05/24 09:54:30;;;;;;;;;;;24.20;53.20;;;;;;5087493;27;43279;-76
2023/05/24 09:56:58;;;;;;;;;;;24.20;53.10;;;;;;5089180;27;42962;-79
2023/05/24 09:59:24;;;;;;;;;;;24.20;53.20;;;;;;5097921;27;44630;-93
2023/05/24 10:01:55;;;;;;;;;;;24.20;52.60;;;;;;5105274;27;43200;-77
2023/05/24 10:04:31;;;;;;;;;;;24.10;53.30;;;;;;5099710;27;43642;-81
2023/05/24 10:06:56;;;;;;;;;;;24.30;53.50;;;;;;5097209;27;42919;-74
2023/05/24 10:09:22;;;;;;;;;;;24.10;53.40;;;;;;5097750;27;42911;-88
2023/05/24 10:11:48;;;;;;;;;;;24.10;53.50;;;;;;5093807;27;43024;-95
2023/05/24 10:14:13;;;;;;;;;;;24.10;53.50;;;;;;5099758;27;43707;-82
2023/05/24 10:16:39;;;;;;;;;;;24.10;53.50;;;;;;5104154;27;42926;-78
2023/05/24 10:19:06;;;;;;;;;;;24.20;53.70;;;;;;5100145;27;43001;-82
2023/05/24 10:21:31;;;;;;;;;;;24.20;54.10;;;;;;5096508;27;42963;-90
2023/05/24 10:23:58;;;;;;;;;;;24.20;53.80;;;;;;5100406;27;43073;-86
2023/05/24 10:26:25;;;;;;;;;;;24.20;53.80;;;;;;5101623;27;43076;-91
2023/05/24 10:28:53;;;;;;;;;;;24.20;53.90;;;;;;5093733;27;43009;-83
2023/05/24 10:31:25;;;;;;;;;;;24.20;53.80;;;;;;5095517;27;43002;-76
2023/05/24 10:33:51;;;;;;;;;;;24.20;53.80;;;;;;5090941;27;43237;-75
2023/05/24 10:36:17;;;;;;;;;;;24.30;54.00;;;;;;5095925;27;42944;-85
2023/05/24 10:38:46;;;;;;;;;;;24.10;53.80;;;;;;5103658;27;43452;-80
2023/05/24 10:41:12;;;;;;;;;;;24.20;54.00;;;;;;5107064;27;42951;-85
2023/05/24 10:43:38;;;;;;;;;;;24.10;53.90;;;;;;5105552;27;43763;-85
2023/05/24 10:46:04;;;;;;;;;;;24.20;54.40;;;;;;5089614;27;42963;-86
2023/05/24 10:48:30;;;;;;;;;;;24.20;53.90;;;;;;5094878;27;43629;-87
2023/05/24 10:50:56;;;;;;;;;;;24.20;53.90;;;;;;5095417;27;43007;-89
2023/05/24 10:53:22;;;;;;;;;;;24.20;54.00;;;;;;5093858;27;42961;-86
2023/05/24 10:55:54;;;;;;;;;;;24.20;54.00;;;;;;5103798;27;43093;-88
2023/05/24 10:58:22;;;;;;;;;;;24.90;54.20;;;;;;5101911;27;42977;-92
2023/05/24 11:00:50;;;;;;;;;;;24.20;54.00;;;;;;5096127;27;43084;-84
2023/05/24 11:03:22;;;;;;;;;;;24.20;54.20;;;;;;5098403;27;43004;-77
2023/05/24 11:05:49;;;;;;;;;;;24.30;54.20;;;;;;5084969;27;43049;-88
2023/05/24 11:08:21;;;;;;;;;;;24.20;54.10;;;;;;5084285;27;42937;-83
2023/05/24 11:10:46;;;;;;;;;;;24.30;54.30;;;;;;5106017;27;43291;-87
2023/05/24 11:13:12;;;;;;;;;;;24.20;53.80;;;;;;5103737;27;43104;-87
2023/05/24 11:15:38;;;;;;;;;;;24.20;54.40;;;;;;5104147;27;42944;-84
2023/05/24 11:18:13;;;;;;;;;;;24.30;54.30;;;;;;5095704;27;43569;-77
2023/05/24 11:20:40;;;;;;;;;;;24.30;54.10;;;;;;5093394;27;43039;-82
2023/05/24 11:23:06;;;;;;;;;;;24.30;54.30;;;;;;5093381;27;43593;-88
2023/05/24 11:25:32;;;;;;;;;;;24.30;54.30;;;;;;5093329;27;43044;-90
2023/05/24 11:27:58;;;;;;;;;;;24.20;54.30;;;;;;5090950;27;42970;-77
2023/05/24 11:30:25;;;;;;;;;;;24.30;54.50;;;;;;5091151;27;43207;-77
2023/05/24 11:32:52;;;;;;;;;;;24.30;54.60;;;;;;5093128;27;62325;-86
2023/05/24 11:35:18;;;;;;;;;;;24.30;54.50;;;;;;5094835;27;43275;-83
2023/05/24 11:37:44;;;;;;;;;;;24.40;54.30;;;;;;5092444;27;43429;-87
2023/05/24 11:40:10;;;;;;;;;;;24.30;54.30;;;;;;5093774;27;43372;-81
2023/05/24 11:42:37;;;;;;;;;;;24.30;54.30;;;;;;5086794;27;44211;-82
2023/05/24 11:45:07;;;;;;;;;;;24.30;54.50;;;;;;5092747;27;43147;-79
2023/05/24 11:47:38;;;;;;;;;;;24.30;54.30;;;;;;5094979;27;43695;-77
2023/05/24 11:50:05;;;;;;;;;;;24.30;54.30;;;;;;5092395;27;42992;-84
2023/05/24 11:52:31;;;;;;;;;;;24.30;54.70;;;;;;5095252;27;44853;-83
2023/05/24 11:54:56;;;;;;;;;;;24.30;55.20;;;;;;5074401;28;43010;-84
2023/05/24 11:57:48;;;;;;;;;;;24.30;55.30;;;;;;5093611;27;43055;-82
2023/05/24 12:00:23;;;;;;;;;;;24.20;55.20;;;;;;5085185;27;43004;-85
2023/05/24 12:02:48;;;;;;;;;;;24.20;55.50;;;;;;5095155;27;43870;-80
2023/05/24 12:05:17;;;;;;;;;;;24.20;55.60;;;;;;5095369;27;42921;-78
2023/05/24 12:07:47;;;;;;;;;;;24.20;55.80;;;;;;5092254;27;43144;-84
2023/05/24 12:10:16;;;;;;;;;;;24.20;55.70;;;;;;5091610;27;42997;-83
2023/05/24 12:12:42;;;;;;;;;;;24.30;55.40;;;;;;5092218;27;42962;-84
2023/05/24 12:15:08;;;;;;;;;;;24.20;55.60;;;;;;5092491;27;43079;-85
2023/05/24 12:17:34;;;;;;;;;;;23.90;55.30;;;;;;5089824;27;43056;-76
2023/05/24 12:20:01;;;;;;;;;;;24.20;55.40;;;;;;5091519;27;42955;-79
2023/05/24 12:22:28;;;;;;;;;;;24.30;55.40;;;;;;5092181;27;43626;-84
2023/05/24 12:24:54;;;;;;;;;;;24.30;55.20;;;;;;5094613;27;42914;-85
2023/05/24 12:27:19;;;;;;;;;;;24.20;55.30;;;;;;5092177;27;43059;-86
2023/05/24 12:29:45;;;;;;;;;;;24.30;55.60;;;;;;5087925;27;43036;-84
2023/05/24 12:32:11;;;;;;;;;;;24.30;55.00;;;;;;5090081;27;44030;-80
2023/05/24 12:34:39;;;;;;;;;;;24.30;55.50;;;;;;5091297;27;42990;-91
2023/05/24 12:37:04;;;;;;;;;;;24.30;55.50;;;;;;5089228;27;43627;-94
2023/05/24 12:39:31;;;;;;;;;;;24.20;55.50;;;;;;5092332;27;42975;-91
2023/05/24 12:41:57;;;;;;;;;;;24.20;55.50;;;;;;5097339;27;43045;-84
2023/05/24 12:44:24;;;;;;;;;;;24.20;55.20;;;;;;5103769;27;43067;-84
2023/05/24 12:46:52;;;;;;;;;;;24.20;55.00;;;;;;5088617;27;43310;-84
2023/05/24 12:49:17;;;;;;;;;;;24.20;54.70;;;;;;5095204;27;42884;-82
2023/05/24 12:51:43;;;;;;;;;;;24.20;54.90;;;;;;5071044;27;45557;-84
2023/05/24 12:54:08;;;;;;;;;;;24.20;54.90;;;;;;5094941;27;43060;-84
2023/05/24 12:56:34;;;;;;;;;;;24.20;55.00;;;;;;5090463;27;43006;-88
2023/05/24 12:59:00;;;;;;;;;;;24.30;55.10;;;;;;5086861;27;43071;-80
2023/05/24 13:01:26;;;;;;;;;;;24.30;55.20;;;;;;5091658;27;44376;-84
2023/05/24 13:03:52;;;;;;;;;;;24.20;55.10;;;;;;5096363;27;43094;-85
2023/05/24 13:06:17;;;;;;;;;;;24.20;55.00;;;;;;5091134;27;44035;-74
2023/05/24 13:08:43;;;;;;;;;;;24.20;54.40;;;;;;5094026;27;44025;-90
2023/05/24 13:11:12;;;;;;;;;;;24.30;55.50;;;;;;5087457;27;44634;-79
2023/05/24 13:13:37;;;;;;;;;;;24.20;56.10;;;;;;5091613;27;43068;-84
2023/05/24 13:16:06;;;;;;;;;;;24.30;56.20;;;;;;5070179;27;42959;-87
2023/05/24 13:18:32;;;;;;;;;;;24.30;55.60;;;;;;5087701;27;43714;-79
2023/05/24 13:20:59;;;;;;;;;;;24.30;55.50;;;;;;5092777;27;43020;-84
2023/05/24 13:23:28;;;;;;;;;;;24.30;55.40;;;;;;5092734;27;43039;-73
2023/05/24 13:25:53;;;;;;;;;;;24.30;55.00;;;;;;5093406;27;43133;-84
2023/05/24 13:28:19;;;;;;;;;;;24.30;55.30;;;;;;5094862;27;43130;-82
2023/05/24 13:30:45;;;;;;;;;;;24.30;55.20;;;;;;5096636;27;42997;-80
2023/05/24 13:33:11;;;;;;;;;;;24.30;54.90;;;;;;5096389;27;42965;-89
2023/05/24 13:35:37;;;;;;;;;;;24.30;54.90;;;;;;5095197;27;42953;-83
2023/05/24 13:38:02;;;;;;;;;;;24.30;54.80;;;;;;5094078;27;43076;-85
2023/05/24 13:40:28;;;;;;;;;;;24.30;54.80;;;;;;5096591;27;43358;-87
2023/05/24 13:42:55;;;;;;;;;;;24.30;54.70;;;;;;5089485;27;42957;-89
2023/05/24 13:45:21;;;;;;;;;;;24.30;54.70;;;;;;5100163;27;43676;-86
2023/05/24 13:47:47;;;;;;;;;;;24.30;54.70;;;;;;5102531;27;42918;-87
2023/05/24 13:50:12;;;;;;;;;;;24.30;54.70;;;;;;5094658;27;43420;-85
2023/05/24 13:52:38;;;;;;;;;;;24.40;54.60;;;;;;5094831;27;42879;-81
2023/05/24 13:55:04;;;;;;;;;;;24.40;54.40;;;;;;5099350;27;43526;-87
2023/05/24 13:57:31;;;;;;;;;;;24.30;54.50;;;;;;5094303;27;42926;-86
2023/05/24 13:59:57;;;;;;;;;;;24.40;54.50;;;;;;5093314;27;43067;-83
2023/05/24 14:02:23;;;;;;;;;;;24.40;54.60;;;;;;5097024;27;43084;-83
2023/05/24 14:04:48;;;;;;;;;;;24.30;54.60;;;;;;5098132;27;43493;-84
2023/05/24 14:07:14;;;;;;;;;;;24.30;55.10;;;;;;5092672;27;43120;-88
2023/05/24 14:09:40;;;;;;;;;;;24.30;54.70;;;;;;5095660;27;43635;-87
2023/05/24 14:12:07;;;;;;;;;;;24.40;54.30;;;;;;5092650;27;42915;-73